createdAt,value
2018-04-23T00:00:32.253Z,92.50
2018-04-23T00:02:59.809Z,92.30
2018-04-23T00:05:27.249Z,92.10
2018-04-23T00:07:55.441Z,92.10
2018-04-23T00:10:22.875Z,92.20
2018-04-23T00:12:50.304Z,92.30
2018-04-23T00:15:17.763Z,92.40
2018-04-23T00:17:45.179Z,92.40
2018-04-23T00:20:12.631Z,92.40
2018-04-23T00:22:40.103Z,92.60
2018-04-23T00:25:07.551Z,92.60
2018-04-23T00:27:35.004Z,92.50
2018-04-23T00:30:02.430Z,92.20
2018-04-23T00:32:29.881Z,92.40
2018-04-23T00:34:59.024Z,92.70
2018-04-23T00:37:26.461Z,92.70
2018-04-23T00:39:53.900Z,93.10
2018-04-23T00:42:22.102Z,94.50
2018-04-23T00:44:49.535Z,94.40
2018-04-23T00:47:16.979Z,98.40
2018-04-23T00:49:45.195Z,99.90
2018-04-23T00:52:12.623Z,99.90
2018-04-23T00:54:40.840Z,99.90
2018-04-23T00:57:08.283Z,99.90
2018-04-23T00:59:35.715Z,99.90
2018-04-23T01:02:03.203Z,99.90
2018-04-23T01:04:30.612Z,99.90
2018-04-23T01:06:58.864Z,99.90
2018-04-23T01:09:26.306Z,99.90
2018-04-23T01:11:54.683Z,99.90
2018-04-23T01:14:22.124Z,99.90
2018-04-23T01:16:49.562Z,99.90
2018-04-23T01:19:17.034Z,99.90
2018-04-23T01:21:44.459Z,99.90
2018-04-23T01:24:12.695Z,99.90
2018-04-23T01:26:40.164Z,99.90
2018-04-23T01:29:07.593Z,99.90
2018-04-23T01:31:35.033Z,99.90
2018-04-23T01:34:02.471Z,99.60
2018-04-23T01:36:30.679Z,99.70
2018-04-23T01:38:59.030Z,99.70
2018-04-23T01:41:27.236Z,99.90
2018-04-23T01:43:54.677Z,99.90
2018-04-23T01:46:22.117Z,99.90
2018-04-23T01:48:50.358Z,99.90
2018-04-23T01:51:17.787Z,99.90
2018-04-23T01:53:45.233Z,99.90
2018-04-23T01:56:12.667Z,99.80
2018-04-23T01:58:40.118Z,99.80
2018-04-23T02:01:08.331Z,99.90
2018-04-23T02:03:35.767Z,99.90
2018-04-23T02:06:03.203Z,99.90
2018-04-23T02:08:31.414Z,99.90
2018-04-23T02:10:58.991Z,99.90
2018-04-23T02:13:26.420Z,99.90
2018-04-23T02:15:53.892Z,99.90
2018-04-23T02:18:21.338Z,99.90
2018-04-23T02:20:48.763Z,99.90
2018-04-23T02:23:16.985Z,99.90
2018-04-23T02:25:44.411Z,99.90
2018-04-23T02:28:12.605Z,99.90
2018-04-23T02:30:40.047Z,99.90
2018-04-23T02:33:08.248Z,99.90
2018-04-23T02:35:35.681Z,99.90
2018-04-23T02:38:03.884Z,99.90
2018-04-23T02:40:31.326Z,99.90
2018-04-23T02:42:59.068Z,99.90
2018-04-23T02:45:27.278Z,99.90
2018-04-23T02:47:54.724Z,99.90
2018-04-23T02:50:22.158Z,99.80
2018-04-23T02:52:50.368Z,99.90
2018-04-23T02:55:17.783Z,99.90
2018-04-23T02:57:46.012Z,99.90
2018-04-23T03:00:13.461Z,99.90
2018-04-23T03:02:40.945Z,99.90
2018-04-23T03:05:08.352Z,99.90
2018-04-23T03:07:36.560Z,99.80
2018-04-23T03:10:04.015Z,99.80
2018-04-23T03:12:31.456Z,99.80
2018-04-23T03:14:59.196Z,99.30
2018-04-23T03:17:27.412Z,99.60
2018-04-23T03:19:54.862Z,99.60
2018-04-23T03:22:22.322Z,99.10
2018-04-23T03:24:49.777Z,99.50
2018-04-23T03:27:17.215Z,99.90
2018-04-23T03:29:44.712Z,99.90
2018-04-23T03:32:12.152Z,99.80
2018-04-23T03:34:39.583Z,99.60
2018-04-23T03:37:07.053Z,99.80
2018-04-23T03:39:35.239Z,99.20
2018-04-23T03:42:02.663Z,99.20
2018-04-23T03:44:30.122Z,99.10
2018-04-23T03:46:57.527Z,99.40
2018-04-23T03:49:24.967Z,99.60
2018-04-23T03:51:52.439Z,99.90
2018-04-23T03:54:19.859Z,99.90
2018-04-23T03:56:47.291Z,99.90
2018-04-23T03:59:14.758Z,99.90
2018-04-23T04:01:42.963Z,99.90
2018-04-23T04:04:10.387Z,99.90
2018-04-23T04:06:38.591Z,99.90
2018-04-23T04:09:06.051Z,99.90
2018-04-23T04:11:33.480Z,99.90
2018-04-23T04:14:13.427Z,99.90
2018-04-23T04:16:52.715Z,99.90
2018-04-23T04:19:20.108Z,99.90
2018-04-23T04:21:47.539Z,99.90
2018-04-23T04:24:14.992Z,99.90
2018-04-23T04:26:42.420Z,99.90
2018-04-23T04:29:09.862Z,99.40
2018-04-23T04:31:38.067Z,99.20
2018-04-23T04:34:05.525Z,99.20
2018-04-23T04:36:32.975Z,99.20
2018-04-23T04:39:00.417Z,99.40
2018-04-23T04:41:27.847Z,99.60
2018-04-23T04:43:56.123Z,98.90
2018-04-23T04:46:23.593Z,98.90
2018-04-23T04:48:51.808Z,98.70
2018-04-23T04:51:19.302Z,98.60
2018-04-23T04:53:46.705Z,98.40
2018-04-23T04:56:14.132Z,98.50
2018-04-23T04:58:42.357Z,98.20
2018-04-23T05:01:09.814Z,97.80
2018-04-23T05:03:37.254Z,97.80
2018-04-23T05:06:04.722Z,98.40
2018-04-23T05:08:32.581Z,97.90
2018-04-23T05:11:00.017Z,98.90
2018-04-23T05:13:28.225Z,98.70
2018-04-23T05:15:55.660Z,98.70
2018-04-23T05:18:23.103Z,98.00
2018-04-23T05:20:51.315Z,97.70
2018-04-23T05:23:18.752Z,97.70
2018-04-23T05:25:46.187Z,98.20
2018-04-23T05:28:14.400Z,97.40
2018-04-23T05:30:41.851Z,97.30
2018-04-23T05:33:09.355Z,97.60
2018-04-23T05:35:36.798Z,97.90
2018-04-23T05:38:04.392Z,97.80
2018-04-23T05:40:31.807Z,97.70
2018-04-23T05:42:59.536Z,97.00
2018-04-23T05:45:27.747Z,97.30
2018-04-23T05:47:55.197Z,97.30
2018-04-23T05:50:22.636Z,96.60
2018-04-23T05:52:50.055Z,97.30
2018-04-23T05:55:17.504Z,97.20
2018-04-23T05:57:44.923Z,97.20
2018-04-23T06:00:12.374Z,96.70
2018-04-23T06:02:39.831Z,96.90
2018-04-23T06:05:07.278Z,97.00
2018-04-23T06:07:34.716Z,96.10
2018-04-23T06:10:02.916Z,96.60
2018-04-23T06:12:30.384Z,96.20
2018-04-23T06:14:57.829Z,96.00
2018-04-23T06:17:26.133Z,96.00
2018-04-23T06:19:53.576Z,96.00
2018-04-23T06:22:21.020Z,94.90
2018-04-23T06:24:48.447Z,94.00
2018-04-23T06:27:16.652Z,93.10
2018-04-23T06:29:44.096Z,93.10
2018-04-23T06:32:11.546Z,93.20
2018-04-23T06:34:39.760Z,92.10
2018-04-23T06:37:07.212Z,92.10
2018-04-23T06:39:34.678Z,91.00
2018-04-23T06:42:02.099Z,91.90
2018-04-23T06:44:30.303Z,91.20
2018-04-23T06:46:57.736Z,91.10
2018-04-23T06:49:26.007Z,91.80
2018-04-23T06:51:54.207Z,91.40
2018-04-23T06:54:21.635Z,91.40
2018-04-23T06:56:49.826Z,90.80
2018-04-23T06:59:17.272Z,90.80
2018-04-23T07:01:45.501Z,91.70
2018-04-23T07:04:12.931Z,91.60
2018-04-23T07:06:40.360Z,90.30
2018-04-23T07:09:08.571Z,90.30
2018-04-23T07:11:35.994Z,90.20
2018-04-23T07:14:04.204Z,90.20
2018-04-23T07:16:31.705Z,90.20
2018-04-23T07:18:59.634Z,86.00
2018-04-23T07:21:27.076Z,88.40
2018-04-23T07:23:54.506Z,86.50
2018-04-23T07:26:22.701Z,89.90
2018-04-23T07:28:50.150Z,89.80
2018-04-23T07:31:18.348Z,89.30
2018-04-23T07:33:45.814Z,89.40
2018-04-23T07:36:13.297Z,87.50
2018-04-23T07:38:40.740Z,88.30
2018-04-23T07:41:08.180Z,90.50
2018-04-23T07:43:35.610Z,90.20
2018-04-23T07:46:03.078Z,89.60
2018-04-23T07:48:30.515Z,89.10
2018-04-23T07:50:59.642Z,89.90
2018-04-23T07:53:27.105Z,89.80
2018-04-23T07:55:54.534Z,88.30
2018-04-23T07:58:22.739Z,85.80
2018-04-23T08:00:50.169Z,85.80
2018-04-23T08:03:18.359Z,84.70
2018-04-23T08:05:45.799Z,84.80
2018-04-23T08:08:13.991Z,77.90
2018-04-23T08:10:41.437Z,77.90
2018-04-23T08:13:09.620Z,76.30
2018-04-23T08:15:37.060Z,76.20
2018-04-23T08:18:05.250Z,71.70
2018-04-23T08:20:32.691Z,71.70
2018-04-23T08:23:00.897Z,72.50
2018-04-23T08:25:28.355Z,72.50
2018-04-23T08:27:55.772Z,68.80
2018-04-23T08:30:23.992Z,66.20
2018-04-23T08:32:51.413Z,66.10
2018-04-23T08:35:19.611Z,64.30
2018-04-23T08:37:47.128Z,64.10
2018-04-23T08:40:14.555Z,64.10
2018-04-23T08:42:41.996Z,59.70
2018-04-23T08:45:09.440Z,61.10
2018-04-23T08:47:37.170Z,59.20
2018-04-23T08:50:04.605Z,55.40
2018-04-23T08:52:32.038Z,53.70
2018-04-23T08:54:59.828Z,51.20
2018-04-23T08:57:27.320Z,49.40
2018-04-23T08:59:55.579Z,47.30
2018-04-23T09:02:22.947Z,47.30
2018-04-23T09:04:51.156Z,43.40
2018-04-23T09:07:18.706Z,43.30
2018-04-23T09:09:46.174Z,40.10
2018-04-23T09:12:13.617Z,40.60
2018-04-23T09:14:41.818Z,41.10
2018-04-23T09:17:09.247Z,40.50
2018-04-23T09:19:36.671Z,41.00
2018-04-23T09:22:04.112Z,40.70
2018-04-23T09:24:31.552Z,39.30
2018-04-23T09:26:59.921Z,39.50
2018-04-23T09:29:27.408Z,40.00
2018-04-23T09:31:54.836Z,41.90
2018-04-23T09:34:22.295Z,42.30
2018-04-23T09:36:49.755Z,40.80
2018-04-23T09:39:17.177Z,42.00
2018-04-23T09:41:45.389Z,45.60
2018-04-23T09:44:12.829Z,45.60
2018-04-23T09:46:40.262Z,47.60
2018-04-23T09:49:08.459Z,49.10
2018-04-23T09:51:35.920Z,49.10
2018-04-23T09:54:04.091Z,50.90
2018-04-23T09:56:31.531Z,50.90
2018-04-23T09:59:00.653Z,51.90
2018-04-23T10:01:29.111Z,51.90
2018-04-23T10:04:02.942Z,51.60
2018-04-23T10:06:30.386Z,51.50
2018-04-23T10:08:57.826Z,46.50
2018-04-23T10:11:25.252Z,44.10
2018-04-23T10:13:52.679Z,43.50
2018-04-23T10:16:20.147Z,42.70
2018-04-23T10:18:47.627Z,42.90
2018-04-23T10:21:15.086Z,44.40
2018-04-23T10:23:42.512Z,44.60
2018-04-23T10:26:09.985Z,44.60
2018-04-23T10:28:37.407Z,43.90
2018-04-23T10:31:05.420Z,40.60
2018-04-23T10:33:32.853Z,40.00
2018-04-23T10:36:00.288Z,39.40
2018-04-23T10:38:27.823Z,42.30
2018-04-23T10:40:55.252Z,42.80
2018-04-23T10:43:22.686Z,39.50
2018-04-23T10:45:50.132Z,39.80
2018-04-23T10:48:17.594Z,40.40
2018-04-23T10:50:45.030Z,38.10
2018-04-23T10:53:13.240Z,35.50
2018-04-23T10:55:40.663Z,35.50
2018-04-23T10:58:08.160Z,34.00
2018-04-23T11:00:35.594Z,32.80
2018-04-23T11:03:03.039Z,34.80
2018-04-23T11:05:30.471Z,39.20
2018-04-23T11:07:57.925Z,39.80
2018-04-23T11:10:25.364Z,40.70
2018-04-23T11:12:52.820Z,40.60
2018-04-23T11:15:20.253Z,40.60
2018-04-23T11:17:47.694Z,42.30
2018-04-23T11:20:15.164Z,42.00
2018-04-23T11:22:42.576Z,42.30
2018-04-23T11:25:10.798Z,43.90
2018-04-23T11:27:38.236Z,43.80
2018-04-23T11:30:05.670Z,42.00
2018-04-23T11:32:33.153Z,41.40
2018-04-23T11:35:00.531Z,42.70
2018-04-23T11:37:27.977Z,44.10
2018-04-23T11:39:55.400Z,43.30
2018-04-23T11:42:23.615Z,45.40
2018-04-23T11:44:51.039Z,45.40
2018-04-23T11:47:19.247Z,45.90
2018-04-23T11:49:46.735Z,45.90
2018-04-23T11:52:14.202Z,46.90
2018-04-23T11:54:42.403Z,44.70
2018-04-23T11:57:10.661Z,44.40
2018-04-23T11:59:38.079Z,44.40
2018-04-23T12:02:05.549Z,45.60
2018-04-23T12:04:33.077Z,44.90
2018-04-23T12:07:01.468Z,45.60
2018-04-23T12:09:28.927Z,44.70
2018-04-23T12:11:56.374Z,40.20
2018-04-23T12:14:23.805Z,43.00
2018-04-23T12:16:52.019Z,42.60
2018-04-23T12:19:19.460Z,42.50
2018-04-23T12:21:46.936Z,40.50
2018-04-23T12:24:15.091Z,39.40
2018-04-23T12:26:42.533Z,39.30
2018-04-23T12:29:10.740Z,41.70
2018-04-23T12:31:38.170Z,41.50
2018-04-23T12:34:06.367Z,41.00
2018-04-23T12:36:33.806Z,41.00
2018-04-23T12:39:01.245Z,39.00
2018-04-23T12:41:29.463Z,42.00
2018-04-23T12:43:56.921Z,42.00
2018-04-23T12:46:24.331Z,40.20
2018-04-23T12:48:51.760Z,39.10
2018-04-23T12:51:19.208Z,39.50
2018-04-23T12:53:46.659Z,39.50
2018-04-23T12:56:14.168Z,40.10
2018-04-23T12:58:41.590Z,39.90
2018-04-23T13:01:09.045Z,40.50
2018-04-23T13:03:36.496Z,39.90
2018-04-23T13:06:03.989Z,41.40
2018-04-23T13:08:31.411Z,41.10
2018-04-23T13:10:58.858Z,39.40
2018-04-23T13:13:26.291Z,39.70
2018-04-23T13:15:53.800Z,41.00
2018-04-23T13:18:21.262Z,39.00
2018-04-23T13:20:48.664Z,41.60
2018-04-23T13:23:16.097Z,39.20
2018-04-23T13:25:44.286Z,40.40
2018-04-23T13:28:11.741Z,40.40
2018-04-23T13:30:39.981Z,41.00
2018-04-23T13:33:07.415Z,41.00
2018-04-23T13:35:34.846Z,41.70
2018-04-23T13:38:02.295Z,41.50
2018-04-23T13:40:30.496Z,40.40
2018-04-23T13:42:57.948Z,40.30
2018-04-23T13:45:25.388Z,41.70
2018-04-23T13:47:52.819Z,41.20
2018-04-23T13:50:20.258Z,41.50
2018-04-23T13:52:47.679Z,39.90
2018-04-23T13:55:15.123Z,39.70
2018-04-23T13:57:42.556Z,40.20
2018-04-23T14:00:10.757Z,40.30
2018-04-23T14:02:38.248Z,40.30
2018-04-23T14:05:05.706Z,41.30
2018-04-23T14:07:33.134Z,40.80
2018-04-23T14:10:00.622Z,40.40
2018-04-23T14:12:28.073Z,39.90
2018-04-23T14:14:55.540Z,39.40
2018-04-23T14:17:22.969Z,38.30
2018-04-23T14:19:50.524Z,38.20
2018-04-23T14:22:17.951Z,37.00
2018-04-23T14:24:46.151Z,40.00
2018-04-23T14:27:13.644Z,40.00
2018-04-23T14:29:41.077Z,38.00
2018-04-23T14:32:08.590Z,40.90
2018-04-23T14:34:36.114Z,41.20
2018-04-23T14:37:03.581Z,39.80
2018-04-23T14:39:31.044Z,39.00
2018-04-23T14:41:58.483Z,41.20
2018-04-23T14:44:25.948Z,39.20
2018-04-23T14:46:53.405Z,40.20
2018-04-23T14:49:20.831Z,40.10
2018-04-23T14:51:49.100Z,40.90
2018-04-23T14:54:16.543Z,39.60
2018-04-23T14:56:43.971Z,40.20
2018-04-23T14:59:11.408Z,40.30
2018-04-23T15:01:38.855Z,41.50
2018-04-23T15:04:06.327Z,41.60
2018-04-23T15:06:33.798Z,41.00
2018-04-23T15:09:01.226Z,43.00
2018-04-23T15:11:28.677Z,42.80
2018-04-23T15:13:56.138Z,43.80
2018-04-23T15:16:23.568Z,43.80
2018-04-23T15:18:51.770Z,42.00
2018-04-23T15:21:19.207Z,42.00
2018-04-23T15:23:46.641Z,40.70
2018-04-23T15:26:14.071Z,42.30
2018-04-23T15:28:42.262Z,42.40
2018-04-23T15:31:09.791Z,42.50
2018-04-23T15:33:37.235Z,43.30
2018-04-23T15:36:04.674Z,43.30
2018-04-23T15:38:32.113Z,43.60
2018-04-23T15:41:01.276Z,45.70
2018-04-23T15:43:28.689Z,45.60
2018-04-23T15:45:56.174Z,45.60
2018-04-23T15:48:23.613Z,45.70
2018-04-23T15:50:51.051Z,45.00
2018-04-23T15:53:18.496Z,46.60
2018-04-23T15:55:46.704Z,43.40
2018-04-23T15:58:14.136Z,43.40
2018-04-23T16:00:42.331Z,45.20
2018-04-23T16:03:09.773Z,45.10
2018-04-23T16:05:37.266Z,45.40
2018-04-23T16:08:04.716Z,45.30
2018-04-23T16:10:32.144Z,44.70
2018-04-23T16:13:01.267Z,45.10
2018-04-23T16:15:28.695Z,45.00
2018-04-23T16:17:56.904Z,42.70
2018-04-23T16:20:24.319Z,42.70
2018-04-23T16:22:52.524Z,43.40
2018-04-23T16:25:19.951Z,43.40
2018-04-23T16:27:48.165Z,44.20
2018-04-23T16:30:15.598Z,44.30
2018-04-23T16:32:43.792Z,46.20
2018-04-23T16:35:11.290Z,46.10
2018-04-23T16:37:38.744Z,44.60
2018-04-23T16:40:06.159Z,45.00
2018-04-23T16:42:33.593Z,45.00
2018-04-23T16:45:01.802Z,45.10
2018-04-23T16:47:29.231Z,45.10
2018-04-23T16:49:57.439Z,45.60
2018-04-23T16:52:24.874Z,45.60
2018-04-23T16:54:52.311Z,45.30
2018-04-23T16:57:20.499Z,46.80
2018-04-23T16:59:47.953Z,46.80
2018-04-23T17:02:16.157Z,46.00
2018-04-23T17:04:43.601Z,46.00
2018-04-23T17:07:11.040Z,46.70
2018-04-23T17:09:39.244Z,47.10
2018-04-23T17:12:06.673Z,47.00
2018-04-23T17:14:34.867Z,47.20
2018-04-23T17:17:02.344Z,47.20
2018-04-23T17:19:29.793Z,46.60
2018-04-23T17:21:57.227Z,46.90
2018-04-23T17:24:24.692Z,47.00
2018-04-23T17:26:52.886Z,47.80
2018-04-23T17:29:20.315Z,47.70
2018-04-23T17:31:48.519Z,47.00
2018-04-23T17:34:15.975Z,47.00
2018-04-23T17:36:43.417Z,48.70
2018-04-23T17:39:10.848Z,48.00
2018-04-23T17:41:39.072Z,49.10
2018-04-23T17:44:06.516Z,49.10
2018-04-23T17:46:33.963Z,48.30
2018-04-23T17:49:01.395Z,48.50
2018-04-23T17:51:28.836Z,48.30
2018-04-23T17:53:56.271Z,48.50
2018-04-23T17:56:23.739Z,49.20
2018-04-23T17:58:51.195Z,50.00
2018-04-23T18:01:18.614Z,50.10
2018-04-23T18:03:46.045Z,51.40
2018-04-23T18:06:14.259Z,51.40
2018-04-23T18:08:41.679Z,51.30
2018-04-23T18:11:09.912Z,51.80
2018-04-23T18:13:37.327Z,51.80
2018-04-23T18:16:05.581Z,52.60
2018-04-23T18:18:34.590Z,51.70
2018-04-23T18:21:02.793Z,53.30
2018-04-23T18:23:30.235Z,53.20
2018-04-23T18:25:57.692Z,53.50
2018-04-23T18:28:25.797Z,53.80
2018-04-23T18:30:53.219Z,54.60
2018-04-23T18:33:20.660Z,54.50
2018-04-23T18:35:48.856Z,54.50
2018-04-23T18:38:16.310Z,54.50
2018-04-23T18:40:43.752Z,55.00
2018-04-23T18:43:11.972Z,54.10
2018-04-23T18:45:39.437Z,54.00
2018-04-23T18:48:06.899Z,54.60
2018-04-23T18:50:34.356Z,55.50
2018-04-23T18:53:01.773Z,55.20
2018-04-23T18:55:30.014Z,55.40
2018-04-23T18:57:57.407Z,55.40
2018-04-23T19:00:24.843Z,55.90
2018-04-23T19:02:53.099Z,56.90
2018-04-23T19:05:20.535Z,56.90
2018-04-23T19:07:47.973Z,56.60
2018-04-23T19:10:15.392Z,56.40
2018-04-23T19:12:43.592Z,57.90
2018-04-23T19:15:11.034Z,57.70
2018-04-23T19:17:39.261Z,57.20
2018-04-23T19:20:07.465Z,58.50
2018-04-23T19:22:34.906Z,58.50
2018-04-23T19:25:02.341Z,58.60
2018-04-23T19:27:29.770Z,58.50
2018-04-23T19:29:57.196Z,59.30
2018-04-23T19:32:24.648Z,59.20
2018-04-23T19:34:52.067Z,59.30
2018-04-23T19:37:19.572Z,61.40
2018-04-23T19:39:47.011Z,61.00
2018-04-23T19:42:14.439Z,61.90
2018-04-23T19:44:41.884Z,62.50
2018-04-23T19:47:09.319Z,64.90
2018-04-23T19:49:36.747Z,65.50
2018-04-23T19:52:04.180Z,65.40
2018-04-23T19:54:31.633Z,65.40
2018-04-23T19:56:59.068Z,69.20
2018-04-23T19:59:26.513Z,68.00
2018-04-23T20:01:53.937Z,66.60
2018-04-23T20:04:21.361Z,67.60
2018-04-23T20:06:48.854Z,67.90
2018-04-23T20:09:16.239Z,68.40
2018-04-23T20:11:43.666Z,68.70
2018-04-23T20:14:11.257Z,69.00
2018-04-23T20:16:39.440Z,70.40
2018-04-23T20:19:06.879Z,70.20
2018-04-23T20:21:35.067Z,69.50
2018-04-23T20:24:02.508Z,69.40
2018-04-23T20:26:30.691Z,71.20
2018-04-23T20:28:58.135Z,71.10
2018-04-23T20:31:26.338Z,73.30
2018-04-23T20:33:53.783Z,73.30
2018-04-23T20:36:21.223Z,72.20
2018-04-23T20:38:49.427Z,73.40
2018-04-23T20:41:16.870Z,73.30
2018-04-23T20:43:44.334Z,74.20
2018-04-23T20:46:12.544Z,75.60
2018-04-23T20:48:39.961Z,75.60
2018-04-23T20:51:07.408Z,77.10
2018-04-23T20:53:34.882Z,78.00
2018-04-23T20:56:02.327Z,77.80
2018-04-23T20:58:30.514Z,79.20
2018-04-23T21:00:57.961Z,79.10
2018-04-23T21:03:26.175Z,77.90
2018-04-23T21:05:53.662Z,77.90
2018-04-23T21:08:21.095Z,77.10
2018-04-23T21:10:48.543Z,78.40
2018-04-23T21:13:15.976Z,78.80
2018-04-23T21:15:43.407Z,79.10
2018-04-23T21:18:10.831Z,78.20
2018-04-23T21:20:38.276Z,79.40
2018-04-23T21:23:05.726Z,81.20
2018-04-23T21:25:33.172Z,79.90
2018-04-23T21:28:01.399Z,80.30
2018-04-23T21:30:28.847Z,80.30
2018-04-23T21:32:56.315Z,80.50
2018-04-23T21:35:23.759Z,78.50
2018-04-23T21:37:51.196Z,76.80
2018-04-23T21:40:18.657Z,76.30
2018-04-23T21:42:46.098Z,76.00
2018-04-23T21:45:13.566Z,76.00
2018-04-23T21:47:40.970Z,76.20
2018-04-23T21:50:08.420Z,76.90
2018-04-23T21:52:35.844Z,80.30
2018-04-23T21:55:03.291Z,78.10
2018-04-23T21:57:30.788Z,78.80
2018-04-23T21:59:58.242Z,78.00
2018-04-23T22:02:25.681Z,77.80
2018-04-23T22:04:53.305Z,78.50
2018-04-23T22:07:21.504Z,81.20
2018-04-23T22:09:48.949Z,81.20
2018-04-23T22:12:16.379Z,80.70
2018-04-23T22:14:44.582Z,82.60
2018-04-23T22:17:12.014Z,82.50
2018-04-23T22:19:40.227Z,82.50
2018-04-23T22:22:07.664Z,82.50
2018-04-23T22:24:35.091Z,82.90
2018-04-23T22:27:03.297Z,82.80
2018-04-23T22:29:30.743Z,82.80
2018-04-23T22:31:58.937Z,84.60
2018-04-23T22:34:26.371Z,84.60
2018-04-23T22:36:54.568Z,86.00
2018-04-23T22:39:22.016Z,86.00
2018-04-23T22:41:49.471Z,86.30
2018-04-23T22:44:17.676Z,87.60
2018-04-23T22:46:45.128Z,87.60
2018-04-23T22:49:13.481Z,88.30
2018-04-23T22:51:40.940Z,89.30
2018-04-23T22:54:09.140Z,89.60
2018-04-23T22:56:36.583Z,89.60
2018-04-23T22:59:04.036Z,89.30
2018-04-23T23:01:31.478Z,88.20
2018-04-23T23:03:59.695Z,88.20
2018-04-23T23:06:27.133Z,88.20
2018-04-23T23:08:54.604Z,89.10
2018-04-23T23:11:22.042Z,88.10
2018-04-23T23:13:49.487Z,88.10
2018-04-23T23:16:16.939Z,88.20
2018-04-23T23:18:45.156Z,88.30
2018-04-23T23:21:12.607Z,88.30
2018-04-23T23:23:40.038Z,88.10
2018-04-23T23:26:07.471Z,87.00
2018-04-23T23:28:34.895Z,86.90
2018-04-23T23:31:02.336Z,86.70
2018-04-23T23:33:29.786Z,86.80
2018-04-23T23:35:57.228Z,87.80
2018-04-23T23:38:24.666Z,88.30
2018-04-23T23:40:52.112Z,88.30
2018-04-23T23:43:19.547Z,88.30
2018-04-23T23:45:47.000Z,88.50
2018-04-23T23:48:14.418Z,88.80
2018-04-23T23:50:41.865Z,89.40
2018-04-23T23:53:10.057Z,88.70
2018-04-23T23:55:37.499Z,88.70
2018-04-23T23:58:04.943Z,88.30
